Skip Navigation Links Skip Navigation Links

Current Weather

Chievres, Belgium

For information only: do not use for flight planning or navigation.
Latest weather
Observation time Tuesday, October 19, 2021 9:55 AM CEST
Local time Tuesday, October 19, 2021 10:20 AM CEST
Flight conditions Instrument Meteorological Conditions
Winds
Wind direction South-Southwest (200°)
Wind speed 15 mph
Visibility 3.7 mi.
Sky condition
Ceiling 600 ft. overcast
Cloud layer overcast 600 ft.
Temperature 61°F
Dewpoint 61°F
Altimeter 30.06 in.Hg
Derived measurements
Relative humidity 100%
Density altitude 266 ft.
Remarks
Fully automated report.
METAR EBCV 190755Z AUTO 20013KT 6000 OVC006/// 16/16 Q1018 YLO

Settings

Location code

InnerDrive.Weather 4.0.6770.0 Release CLR 4.0.30319.42000
Copyright ©2018 Inner Drive Technology. All rights reserved. Portions Copyright ©1986-2018 David Braverman.

Find weather

Site navigation


Skip Navigation Links

Place info

Page info

PayPal - The safer, easier way to pay online!

Return home.

Copyright ©2021 Inner Drive Technology. Purveyors of fine, hand-crafted computer software. Page printed 2021-10-19T08:20:31 UTC.